Pagina principale
METAR-TAF:

METAR-TAF

Aeroporti :

Pratica Di Mare, Italia

Aeroporto militare Mario de Bernardi

latitudine: 41-39N, longitudine: 012-27E, altezza: 6 m

Osservazione

Il bollettino è stato emesso 37 minuti fa, alle 09:55 UTC
Vento 9 kt da ovest
Temperature 22°C
Umidità 35%
Pressione 1019 hPa
Visibilità 10 km o più
Poco nuvoloso ad un'altezza di 2200 ft

METAR: LIRE 210955Z 26009KT 9999 FEW022 22/06 Q1019 RMK FEW VIS MIN 9999 WIND THR13 27007KT WIND THR31 25008KT BLU

Ora: 12:32 (10:32 UTC)

Previsione

Il bollettino è stato emesso 2 ore e 32 minuti fa, alle 08:00 UTC
Previsione valida dal 21 alle 09 UTC al 21 alle 18 UTC
Vento 6 kt da nord/nord-est
Visibilità 10 km o più
nessuna nube inferiore a 1500 m e nessun cumulonembo
Evoluzione graduale
dal 21 alle 11 UTC al 21 alle 14 UTC
Vento 11 kt da ovest

TAF: LIRE 210800Z 2109/2118 02006KT CAVOK BECMG 2111/2114 27011KT

Osservazioni e previsioni meteorologiche di più di 4000 aeroporti (messaggi METAR e TAF).

Le stazioni disponibili sono rappresentate dai dischi gialli e rossi sulla carta.

Puntare il mouse per vedere il nome della stazione.

Clicca sopra per visualizzare le osservazioni e previsioni meteorologiche.

Per cambiare la mappa : fare clic sui pulsanti verdi con una croce nera per ingrandire, il pulsante verde con un trattino per diminuire, o sulla freccia verde per le mappe adiacenti.


METAR-TAF: